createdAt,value
2018-04-23T10:12:56.158Z,98893.25
2018-04-23T10:15:24.586Z,98900.09
2018-04-23T10:17:52.894Z,98901.33
2018-04-23T10:20:21.791Z,98897.67
2018-04-23T10:22:50.187Z,98899.17
2018-04-23T10:25:18.548Z,98907.33
2018-04-23T10:27:46.849Z,98901.16
2018-04-23T10:30:15.172Z,98899.88
2018-04-23T10:32:43.962Z,98897.73
2018-04-23T10:35:12.267Z,98911.63
2018-04-23T10:37:42.364Z,98903.99
2018-04-23T10:40:10.715Z,98911.02
2018-04-23T10:42:39.023Z,98905.09
2018-04-23T10:45:07.326Z,98902.94
2018-04-23T10:47:35.632Z,98904.51
2018-04-23T10:50:04.181Z,98900.88
2018-04-23T10:52:32.456Z,98902.39
2018-04-23T10:55:00.895Z,98899.11
2018-04-23T10:57:30.019Z,98897.27
2018-04-23T10:59:58.356Z,98892.64
2018-04-23T11:02:27.559Z,98892.52
2018-04-23T11:04:55.910Z,98890.14
2018-04-23T11:07:24.218Z,98881.39
2018-04-23T11:09:52.556Z,98888.06
2018-04-23T11:12:20.871Z,98880.14
2018-04-23T11:14:50.013Z,98885.56
2018-04-23T11:17:18.406Z,98883.03
2018-04-23T11:19:46.698Z,98881.27
2018-04-23T11:22:15.019Z,98874.18
2018-04-23T11:24:43.339Z,98869.98
2018-04-23T11:27:11.590Z,98872.66
2018-04-23T11:29:39.892Z,98875.80
2018-04-23T11:32:08.253Z,98881.46
2018-04-23T11:34:36.568Z,98873.58
2018-04-23T11:37:05.666Z,98872.30
2018-04-23T11:39:34.334Z,98878.89
2018-04-23T11:42:03.630Z,98871.59
2018-04-23T11:44:32.115Z,98871.43
2018-04-23T11:47:00.407Z,98869.69
2018-04-23T11:49:28.678Z,98880.35
2018-04-23T11:51:57.124Z,98872.55
2018-04-23T11:54:25.374Z,98885.39
2018-04-23T11:56:53.706Z,98892.57
2018-04-23T11:59:22.103Z,98892.70
2018-04-23T12:01:50.344Z,98884.72
2018-04-23T12:04:18.788Z,98879.00
2018-04-23T12:06:47.063Z,98881.69
2018-04-23T12:09:15.357Z,98879.23
2018-04-23T12:11:43.639Z,98880.64
2018-04-23T12:14:11.970Z,98858.30
2018-04-23T12:16:40.249Z,98866.77
2018-04-23T12:19:08.555Z,98876.00
2018-04-23T12:21:36.870Z,98879.94
2018-04-23T12:24:05.136Z,98874.72
2018-04-23T12:26:33.486Z,98879.33
2018-04-23T12:29:01.777Z,98875.33
2018-04-23T12:31:30.998Z,98871.30
2018-04-23T12:33:59.267Z,98871.88
2018-04-23T12:36:27.579Z,98871.98
2018-04-23T12:38:56.984Z,98873.10
2018-04-23T12:41:25.258Z,98873.36
2018-04-23T12:43:53.599Z,98855.75
2018-04-23T12:46:21.848Z,98853.45
2018-04-23T12:48:50.171Z,98855.38
2018-04-23T12:51:18.494Z,98846.55
2018-04-23T12:53:46.790Z,98852.59
2018-04-23T12:56:15.072Z,98852.63
2018-04-23T12:58:43.346Z,98855.77
2018-04-23T13:01:11.733Z,98864.31
2018-04-23T13:03:40.013Z,98861.98
2018-04-23T13:06:08.390Z,98862.67
2018-04-23T13:08:36.661Z,98861.88
2018-04-23T13:11:05.574Z,98865.97
2018-04-23T13:13:34.377Z,98863.09
2018-04-23T13:16:02.718Z,98854.67
2018-04-23T13:18:30.979Z,98851.97
2018-04-23T13:20:59.297Z,98847.03
2018-04-23T13:23:27.564Z,98847.94
2018-04-23T13:25:55.940Z,98843.32
2018-04-23T13:28:24.340Z,98848.36
2018-04-23T13:30:52.718Z,98855.69
2018-04-23T13:33:21.118Z,98849.40
2018-04-23T13:35:49.362Z,98849.84
2018-04-23T13:38:18.621Z,98831.70
2018-04-23T13:40:47.047Z,98831.50
2018-04-23T13:43:15.518Z,98826.68
2018-04-23T13:45:43.815Z,98829.19
2018-04-23T13:48:12.136Z,98831.80
2018-04-23T13:50:40.953Z,98834.41
2018-04-23T13:53:09.332Z,98831.86
2018-04-23T13:55:37.593Z,98838.61
2018-04-23T13:58:05.875Z,98821.03
2018-04-23T14:00:34.202Z,98834.73
2018-04-23T14:03:02.564Z,98833.35
2018-04-23T14:05:30.896Z,98829.33
2018-04-23T14:07:59.202Z,98819.50
2018-04-23T14:10:27.507Z,98821.34
2018-04-23T14:12:55.910Z,98823.62
2018-04-23T14:15:24.207Z,98816.89
2018-04-23T14:17:52.485Z,98815.36
2018-04-23T14:20:21.428Z,98809.34
2018-04-23T14:22:49.693Z,98816.74
2018-04-23T14:25:18.007Z,98810.88
2018-04-23T14:27:46.263Z,98813.59
2018-04-23T14:30:14.554Z,98806.52
2018-04-23T14:32:42.948Z,98820.23
2018-04-23T14:35:11.294Z,98824.31
2018-04-23T14:37:39.709Z,98820.84
2018-04-23T14:40:08.075Z,98826.23
2018-04-23T14:42:36.406Z,98824.92
2018-04-23T14:45:05.775Z,98826.09
2018-04-23T14:47:34.227Z,98839.40
2018-04-23T14:50:02.513Z,98833.11
2018-04-23T14:52:30.851Z,98832.05
2018-04-23T14:54:59.151Z,98829.64
2018-04-23T14:57:27.466Z,98828.30
2018-04-23T14:59:55.735Z,98831.69
2018-04-23T15:02:24.065Z,98834.32
2018-04-23T15:04:52.334Z,98833.27
2018-04-23T15:07:20.718Z,98839.06
2018-04-23T15:09:49.139Z,98839.36
2018-04-23T15:12:17.443Z,98846.86
2018-04-23T15:14:45.752Z,98837.15
2018-04-23T15:17:14.035Z,98845.85
2018-04-23T15:19:42.446Z,98841.63
2018-04-23T15:22:10.752Z,98838.16
2018-04-23T15:24:39.082Z,98833.61
2018-04-23T15:27:07.380Z,98839.02
2018-04-23T15:29:35.664Z,98840.00
2018-04-23T15:32:03.968Z,98845.56
2018-04-23T15:34:32.334Z,98848.53
2018-04-23T15:37:01.300Z,98848.70
2018-04-23T15:39:29.625Z,98847.39
2018-04-23T15:41:58.687Z,98855.33
2018-04-23T15:44:27.032Z,98850.56
2018-04-23T15:46:55.345Z,98850.91
2018-04-23T15:49:23.617Z,98855.74
2018-04-23T15:51:51.888Z,98853.75
2018-04-23T15:54:20.787Z,98849.94
2018-04-23T15:56:49.999Z,98860.94
2018-04-23T15:59:19.461Z,98866.27
2018-04-23T16:01:47.739Z,98865.20
2018-04-23T16:04:16.012Z,98865.31
2018-04-23T16:06:44.357Z,98868.58
2018-04-23T16:09:12.622Z,98872.59
2018-04-23T16:11:40.937Z,98871.02
2018-04-23T16:14:09.203Z,98872.47
2018-04-23T16:16:37.499Z,98883.20
2018-04-23T16:19:05.859Z,98886.13
2018-04-23T16:21:34.167Z,98856.52
2018-04-23T16:24:02.459Z,98877.18
2018-04-23T16:26:30.752Z,98867.87
2018-04-23T16:28:59.040Z,98886.69
2018-04-23T16:31:27.371Z,98888.91
2018-04-23T16:33:56.306Z,98890.05
2018-04-23T16:36:24.602Z,98885.10
2018-04-23T16:38:52.878Z,98886.13
2018-04-23T16:41:21.189Z,98896.59
2018-04-23T16:43:49.507Z,98888.87
2018-04-23T16:46:17.758Z,98897.55
2018-04-23T16:48:46.345Z,98892.84
2018-04-23T16:51:14.627Z,98892.34
2018-04-23T16:53:43.046Z,98898.98
2018-04-23T16:56:11.286Z,98898.47
2018-04-23T16:58:39.592Z,98893.12
2018-04-23T17:01:07.951Z,98892.38
2018-04-23T17:03:37.131Z,98901.31
2018-04-23T17:06:05.406Z,98899.91
2018-04-23T17:08:33.754Z,98904.50
2018-04-23T17:11:02.164Z,98903.00
2018-04-23T17:13:30.484Z,98900.20
2018-04-23T17:15:58.864Z,98907.20
2018-04-23T17:18:27.848Z,98896.36
2018-04-23T17:20:56.191Z,98912.34
2018-04-23T17:23:24.496Z,98882.59
2018-04-23T17:25:52.782Z,98897.84
2018-04-23T17:28:21.131Z,98901.52
2018-04-23T17:30:49.409Z,98910.69
2018-04-23T17:33:17.696Z,98908.98
2018-04-23T17:35:46.004Z,98910.79
2018-04-23T17:38:14.335Z,98916.05
2018-04-23T17:40:42.666Z,98918.76
2018-04-23T17:43:10.952Z,98923.12
2018-04-23T17:45:39.255Z,98917.90
2018-04-23T17:48:07.535Z,98929.60
2018-04-23T17:50:35.826Z,98935.78
2018-04-23T17:53:04.130Z,98918.23
2018-04-23T17:55:32.447Z,98936.86
2018-04-23T17:58:00.729Z,98938.91
2018-04-23T18:00:29.060Z,98936.17
2018-04-23T18:02:57.336Z,98934.55
2018-04-23T18:05:25.691Z,98942.55
2018-04-23T18:07:54.506Z,98944.51
2018-04-23T18:10:22.796Z,98945.90
2018-04-23T18:12:51.070Z,98941.09
2018-04-23T18:15:19.390Z,98943.89
2018-04-23T18:17:47.747Z,98941.30
2018-04-23T18:20:16.039Z,98945.25
2018-04-23T18:22:45.135Z,98947.55
2018-04-23T18:25:13.772Z,98951.45
2018-04-23T18:27:42.299Z,98955.73
2018-04-23T18:30:10.724Z,98962.05
2018-04-23T18:32:39.299Z,98969.28
2018-04-23T18:35:07.594Z,98959.43
2018-04-23T18:37:35.906Z,98971.09
2018-04-23T18:40:05.988Z,98982.71
2018-04-23T18:42:34.314Z,98983.81
2018-04-23T18:45:02.663Z,98997.14
2018-04-23T18:47:31.005Z,98990.92
2018-04-23T18:49:59.816Z,98998.55
2018-04-23T18:52:28.176Z,98991.23
2018-04-23T18:54:56.466Z,99009.51
2018-04-23T18:57:24.747Z,99009.84
2018-04-23T18:59:53.256Z,99014.05
2018-04-23T19:02:21.601Z,99022.64
2018-04-23T19:04:49.852Z,99015.18
2018-04-23T19:07:18.177Z,99022.92
2018-04-23T19:09:46.444Z,99025.28
2018-04-23T19:12:14.772Z,99031.25
2018-04-23T19:14:43.095Z,99039.86
2018-04-23T19:17:11.366Z,99032.92
2018-04-23T19:19:39.714Z,99037.56
2018-04-23T19:22:07.994Z,99026.63
2018-04-23T19:24:37.359Z,99033.64
2018-04-23T19:27:05.697Z,99030.09
2018-04-23T19:29:34.009Z,99033.25
2018-04-23T19:32:02.315Z,99037.34
2018-04-23T19:34:30.623Z,99033.47
2018-04-23T19:36:58.897Z,99036.00
2018-04-23T19:39:27.276Z,99039.28
2018-04-23T19:41:55.595Z,99039.14
2018-04-23T19:44:23.865Z,99046.85
2018-04-23T19:46:52.156Z,99050.24
2018-04-23T19:49:20.468Z,99040.86
2018-04-23T19:51:48.841Z,99045.83
2018-04-23T19:54:17.091Z,99043.92
2018-04-23T19:56:45.411Z,99051.38
2018-04-23T19:59:13.679Z,99040.64
2018-04-23T20:01:42.002Z,99048.86
2018-04-23T20:04:10.306Z,99052.00
2018-04-23T20:06:38.613Z,99054.22
2018-04-23T20:09:06.913Z,99052.89
2018-04-23T20:11:35.702Z,99052.22
2018-04-23T20:14:04.047Z,99050.14
2018-04-23T20:16:32.387Z,99050.67
2018-04-23T20:19:00.703Z,99034.92
2018-04-23T20:21:30.260Z,99050.88
2018-04-23T20:23:58.558Z,99050.43
2018-04-23T20:26:26.843Z,99051.48
2018-04-23T20:28:55.124Z,99052.96
2018-04-23T20:31:24.159Z,99055.94
2018-04-23T20:33:52.548Z,99056.47
2018-04-23T20:36:20.814Z,99060.17
2018-04-23T20:38:49.142Z,99063.95
2018-04-23T20:41:17.410Z,99065.36
2018-04-23T20:43:45.679Z,99070.50
2018-04-23T20:46:14.013Z,99071.58
2018-04-23T20:48:42.386Z,99075.86
2018-04-23T20:51:10.694Z,99071.77
2018-04-23T20:53:38.975Z,99067.52
2018-04-23T20:56:07.272Z,99068.70
2018-04-23T20:58:35.541Z,99069.01
2018-04-23T21:01:03.984Z,99073.78
2018-04-23T21:03:32.502Z,99075.86
2018-04-23T21:06:01.158Z,99074.84
2018-04-23T21:08:29.433Z,99086.30
2018-04-23T21:10:57.919Z,99080.20
2018-04-23T21:13:26.162Z,99086.94
2018-04-23T21:15:54.457Z,99077.73
2018-04-23T21:18:22.804Z,99081.22
2018-04-23T21:20:51.079Z,99074.27
2018-04-23T21:23:19.384Z,99080.34
2018-04-23T21:25:48.347Z,99082.86
2018-04-23T21:28:16.719Z,99085.53
2018-04-23T21:30:45.005Z,99091.24
2018-04-23T21:33:14.866Z,99057.33
2018-04-23T21:35:43.158Z,99097.02
2018-04-23T21:38:11.418Z,99096.58
2018-04-23T21:40:39.676Z,99079.69
2018-04-23T21:43:07.996Z,99094.87
2018-04-23T21:45:36.422Z,99092.11
2018-04-23T21:48:04.858Z,99099.56
2018-04-23T21:50:33.135Z,99112.70
2018-04-23T21:53:01.422Z,99112.51
2018-04-23T21:55:29.683Z,99111.66
2018-04-23T21:57:58.013Z,99118.09
2018-04-23T22:00:26.366Z,99122.19
2018-04-23T22:02:54.658Z,99128.12
2018-04-23T22:05:23.120Z,99128.92
2018-04-23T22:07:51.412Z,99131.52
2018-04-23T22:10:19.705Z,99138.16
2018-04-23T22:12:47.966Z,99131.30
2018-04-23T22:15:16.282Z,99139.54
2018-04-23T22:17:44.562Z,99136.80
2018-04-23T22:20:12.878Z,99141.55
2018-04-23T22:22:41.160Z,99141.70
2018-04-23T22:25:09.464Z,99141.23
2018-04-23T22:27:37.724Z,99142.13
2018-04-23T22:30:06.015Z,99149.08
2018-04-23T22:32:34.324Z,99147.86
2018-04-23T22:35:02.639Z,99150.89
2018-04-23T22:37:30.935Z,99153.45
2018-04-23T22:39:59.207Z,99150.19
2018-04-23T22:42:27.548Z,99157.02
2018-04-23T22:44:55.848Z,99160.73
2018-04-23T22:47:24.139Z,99160.34
2018-04-23T22:49:52.415Z,99159.62
2018-04-23T22:52:20.730Z,99163.75
2018-04-23T22:54:49.012Z,99159.80
2018-04-23T22:57:17.336Z,99161.27
2018-04-23T22:59:45.574Z,99162.56
2018-04-23T23:02:13.898Z,99163.67
2018-04-23T23:04:42.183Z,99161.66
2018-04-23T23:07:10.470Z,99164.20
2018-04-23T23:09:38.727Z,99160.79
2018-04-23T23:12:07.039Z,99157.21
2018-04-23T23:14:35.288Z,99154.05
2018-04-23T23:17:03.591Z,99155.38
2018-04-23T23:19:31.839Z,99155.48
2018-04-23T23:22:00.122Z,99151.61
2018-04-23T23:24:28.448Z,99154.42
2018-04-23T23:26:56.732Z,99155.36
2018-04-23T23:29:25.040Z,99158.80
2018-04-23T23:31:53.355Z,99157.77
2018-04-23T23:34:21.637Z,99154.83
2018-04-23T23:36:49.898Z,99150.91
2018-04-23T23:39:18.208Z,99152.30
2018-04-23T23:41:46.528Z,99143.25
2018-04-23T23:44:14.828Z,99150.77
2018-04-23T23:46:43.282Z,99147.91
2018-04-23T23:49:11.569Z,99151.06
2018-04-23T23:51:39.830Z,99136.95
2018-04-23T23:54:08.159Z,99141.03
2018-04-23T23:56:36.410Z,99146.26
2018-04-23T23:59:05.086Z,99140.61
